Time;durP1;ratioP1;P1;durP2;ratioP2;P2;SDS_P1;SDS_P2;PMS_P1;PMS_P2;Temp;Humidity;BMP_temperature;BMP_pressure;BME280_temperature;BME280_humidity;BME280_pressure;Samples;Min_cycle;Max_cycle;Signal;HPM_P1;HPM_P2
2022/10/06 00:02:25;;;;;;;9.85;4.32;;;15.00;99.90;;;;;;4677013;28;10000434;-75
2022/10/06 00:04:51;;;;;;;9.15;4.10;;;15.00;99.90;;;;;;5026878;28;20025;-74
2022/10/06 00:07:17;;;;;;;9.48;3.63;;;14.90;99.90;;;;;;5033293;28;20116;-74
2022/10/06 00:09:42;;;;;;;8.45;3.80;;;14.90;99.90;;;;;;5033203;28;20102;-74
2022/10/06 00:12:09;;;;;;;4.65;3.90;;;14.90;99.90;;;;;;5030545;28;20028;-74
2022/10/06 00:14:35;;;;;;;8.05;4.55;;;14.90;99.90;;;;;;5042522;28;20028;-74
2022/10/06 00:17:01;;;;;;;7.13;3.95;;;14.80;99.90;;;;;;5043212;28;20028;-74
2022/10/06 00:19:27;;;;;;;10.13;4.22;;;14.90;99.90;;;;;;5027730;28;20373;-74
2022/10/06 00:21:52;;;;;;;13.15;3.90;;;14.80;99.90;;;;;;5030644;28;20025;-74
2022/10/06 00:24:18;;;;;;;10.85;3.83;;;14.80;99.90;;;;;;5029709;28;20051;-74
2022/10/06 00:26:46;;;;;;;8.10;3.83;;;14.80;99.90;;;;;;5035863;28;20597;-74
2022/10/06 00:29:12;;;;;;;11.32;3.80;;;14.80;99.90;;;;;;5039222;28;20041;-74
2022/10/06 00:31:38;;;;;;;8.18;4.15;;;14.80;99.90;;;;;;5038335;28;20096;-74
2022/10/06 00:34:04;;;;;;;7.00;3.78;;;14.70;99.90;;;;;;5028872;28;20020;-74
2022/10/06 00:36:30;;;;;;;6.10;3.60;;;14.80;99.90;;;;;;5030383;28;20082;-74
2022/10/06 00:38:55;;;;;;;9.98;3.75;;;14.70;99.90;;;;;;5028809;28;20037;-74
2022/10/06 00:41:21;;;;;;;6.90;3.67;;;14.80;99.90;;;;;;5035499;28;20385;-74
2022/10/06 00:43:53;;;;;;;6.63;3.60;;;14.70;99.90;;;;;;5036840;28;20149;-74
2022/10/06 00:46:25;;;;;;;5.57;3.60;;;14.80;99.90;;;;;;5028497;28;20029;-74
2022/10/06 00:49:13;;;;;;;10.20;3.58;;;14.80;99.90;;;;;;5026249;28;20120;-75
2022/10/06 00:51:44;;;;;;;6.38;3.30;;;14.80;99.90;;;;;;5030074;28;20334;-74
2022/10/06 00:54:11;;;;;;;5.28;3.17;;;14.90;99.90;;;;;;5031851;28;20452;-75
2022/10/06 00:56:39;;;;;;;8.32;3.60;;;14.90;99.90;;;;;;5029354;28;20029;-75
2022/10/06 00:59:13;;;;;;;5.45;3.20;;;14.90;99.90;;;;;;5039433;28;20063;-75
2022/10/06 01:01:42;;;;;;;8.25;3.40;;;14.80;99.90;;;;;;5035095;28;20037;-75
2022/10/06 01:04:13;;;;;;;11.52;3.28;;;14.80;99.90;;;;;;5032812;28;20083;-75
2022/10/06 01:06:53;;;;;;;5.90;2.92;;;14.80;99.90;;;;;;5024546;28;20025;-75
2022/10/06 01:09:21;;;;;;;6.47;2.83;;;14.80;99.90;;;;;;5028410;28;20251;-75
2022/10/06 01:11:50;;;;;;;10.60;3.10;;;14.90;99.90;;;;;;5042563;28;20036;-75
2022/10/06 01:14:18;;;;;;;7.85;3.25;;;14.90;99.90;;;;;;5033454;28;20382;-75
2022/10/06 01:16:50;;;;;;;7.70;3.00;;;14.90;99.90;;;;;;5030138;28;20052;-74
2022/10/06 01:19:39;;;;;;;8.77;3.33;;;15.00;99.90;;;;;;5030611;28;20482;-75
2022/10/06 01:22:07;;;;;;;4.50;2.53;;;15.00;99.90;;;;;;5027311;28;20029;-74
2022/10/06 01:24:33;;;;;;;10.18;2.60;;;15.10;99.90;;;;;;5037775;28;20103;-74
2022/10/06 01:27:01;;;;;;;7.53;2.35;;;15.20;99.90;;;;;;5030899;28;20037;-74
2022/10/06 01:29:27;;;;;;;4.50;2.35;;;15.20;99.90;;;;;;5037825;28;20059;-74
2022/10/06 01:31:53;;;;;;;2.50;1.70;;;15.30;99.90;;;;;;5030761;28;20458;-74
2022/10/06 01:34:18;;;;;;;8.18;2.22;;;15.30;99.90;;;;;;5042613;28;20020;-74
2022/10/06 01:36:45;;;;;;;3.22;1.63;;;15.30;99.90;;;;;;5026968;28;20026;-74
2022/10/06 01:39:11;;;;;;;3.00;2.00;;;15.30;99.90;;;;;;5028103;28;20037;-74
2022/10/06 01:41:36;;;;;;;2.10;1.80;;;15.20;99.90;;;;;;5028584;28;20027;-75
2022/10/06 01:44:02;;;;;;;3.10;1.55;;;15.20;99.90;;;;;;5030969;28;20668;-74
2022/10/06 01:46:28;;;;;;;6.28;1.52;;;15.20;99.90;;;;;;5021122;28;20037;-74
2022/10/06 01:48:54;;;;;;;1.83;1.42;;;15.20;99.90;;;;;;5029319;28;20037;-74
2022/10/06 01:51:20;;;;;;;3.95;1.25;;;15.10;99.90;;;;;;5035127;28;20346;-74
2022/10/06 01:53:45;;;;;;;2.58;0.90;;;15.10;99.90;;;;;;5032946;28;20067;-75
2022/10/06 01:56:12;;;;;;;4.00;0.70;;;15.10;99.90;;;;;;5034499;28;20086;-74
2022/10/06 01:58:38;;;;;;;1.40;0.50;;;15.00;99.90;;;;;;5034102;28;20366;-74
2022/10/06 02:01:07;;;;;;;4.38;0.65;;;15.00;99.90;;;;;;5036890;28;20032;-75
2022/10/06 02:03:34;;;;;;;1.45;0.43;;;15.00;99.90;;;;;;5032666;28;20083;-75
2022/10/06 02:06:00;;;;;;;2.88;0.50;;;15.00;99.90;;;;;;5034242;28;20033;-75
2022/10/06 02:08:26;;;;;;;1.25;0.40;;;15.00;99.90;;;;;;5032485;28;20099;-75
2022/10/06 02:10:52;;;;;;;0.77;0.40;;;15.00;99.90;;;;;;5035142;28;20179;-75
2022/10/06 02:13:17;;;;;;;2.88;0.50;;;14.90;99.90;;;;;;5032286;28;20040;-74
2022/10/06 02:15:44;;;;;;;2.03;0.30;;;15.00;99.90;;;;;;5040058;28;20029;-75
2022/10/06 02:18:09;;;;;;;1.52;0.50;;;14.90;99.90;;;;;;5034809;28;21020;-74
2022/10/06 02:20:35;;;;;;;2.58;0.40;;;14.90;99.90;;;;;;5041347;28;20091;-75
2022/10/06 02:23:01;;;;;;;0.95;0.40;;;14.80;99.90;;;;;;5036845;28;20030;-75
2022/10/06 02:25:26;;;;;;;0.82;0.22;;;14.80;99.90;;;;;;5042904;28;20030;-75
2022/10/06 02:27:53;;;;;;;1.15;0.32;;;14.70;99.90;;;;;;5038431;28;20041;-75
2022/10/06 02:30:19;;;;;;;0.90;0.22;;;14.70;99.90;;;;;;5029053;28;20065;-76
2022/10/06 02:32:45;;;;;;;2.35;0.50;;;14.60;99.90;;;;;;5035542;28;20053;-76
2022/10/06 02:35:11;;;;;;;3.70;0.50;;;14.40;99.90;;;;;;5034202;28;20014;-75
2022/10/06 02:37:37;;;;;;;5.15;0.50;;;14.30;99.90;;;;;;5027610;28;20332;-76
2022/10/06 02:40:04;;;;;;;2.70;0.50;;;14.20;99.90;;;;;;5034071;28;20048;-75
2022/10/06 02:42:29;;;;;;;5.50;0.73;;;14.10;99.90;;;;;;5036855;28;20189;-75
2022/10/06 02:44:57;;;;;;;1.27;0.30;;;14.10;99.90;;;;;;5031592;28;20025;-75
2022/10/06 02:47:23;;;;;;;2.08;0.50;;;13.90;99.90;;;;;;5031803;28;20072;-75
2022/10/06 02:49:49;;;;;;;1.60;0.50;;;13.90;99.90;;;;;;5028642;28;20061;-75
2022/10/06 02:52:15;;;;;;;2.00;0.35;;;13.80;99.90;;;;;;5034414;28;20036;-75
2022/10/06 02:54:41;;;;;;;3.35;0.50;;;13.80;99.90;;;;;;5029371;28;20018;-75
2022/10/06 02:57:07;;;;;;;1.20;0.30;;;13.80;99.90;;;;;;5034954;28;20028;-75
2022/10/06 02:59:33;;;;;;;3.22;0.70;;;13.70;99.90;;;;;;5031683;28;20036;-75
2022/10/06 03:01:58;;;;;;;3.38;0.43;;;13.70;99.90;;;;;;5033176;28;20567;-75
2022/10/06 03:04:24;;;;;;;3.53;0.60;;;13.70;99.90;;;;;;5036924;28;20366;-75
2022/10/06 03:06:49;;;;;;;6.68;0.60;;;13.60;99.90;;;;;;5033921;28;20521;-75
2022/10/06 03:09:17;;;;;;;1.88;0.50;;;13.70;99.90;;;;;;5034255;28;20043;-75
2022/10/06 03:11:43;;;;;;;2.20;0.73;;;13.60;99.90;;;;;;5028696;28;20060;-75
2022/10/06 03:14:09;;;;;;;5.85;1.23;;;13.60;99.90;;;;;;5032756;28;20049;-75
2022/10/06 03:16:39;;;;;;;6.22;1.70;;;13.60;99.90;;;;;;5031640;28;20560;-75
2022/10/06 03:19:06;;;;;;;4.25;0.93;;;13.60;99.90;;;;;;5029102;28;20026;-75
2022/10/06 03:21:35;;;;;;;5.30;1.30;;;13.60;99.90;;;;;;5029463;28;20104;-75
2022/10/06 03:24:02;;;;;;;6.47;1.80;;;13.50;99.90;;;;;;5041759;28;20024;-75
2022/10/06 03:26:37;;;;;;;6.38;1.77;;;13.50;99.90;;;;;;5043222;28;20025;-75
2022/10/06 03:29:04;;;;;;;9.05;1.50;;;13.50;99.90;;;;;;5025252;28;20017;-75
2022/10/06 03:31:30;;;;;;;7.03;0.85;;;13.50;99.90;;;;;;5032807;28;20113;-76
2022/10/06 03:33:56;;;;;;;5.93;0.90;;;13.50;99.90;;;;;;5038508;28;20022;-75
2022/10/06 03:36:23;;;;;;;7.60;1.38;;;13.40;99.90;;;;;;5027039;28;20465;-75
2022/10/06 03:38:49;;;;;;;5.90;1.20;;;13.40;99.90;;;;;;5038795;28;20087;-75
2022/10/06 03:41:16;;;;;;;5.00;0.90;;;13.40;99.90;;;;;;5029848;28;20038;-75
2022/10/06 03:43:43;;;;;;;6.03;0.73;;;13.40;99.90;;;;;;5031851;28;20022;-76
2022/10/06 03:46:11;;;;;;;5.07;0.80;;;13.40;99.90;;;;;;5038629;28;20029;-75
2022/10/06 03:48:37;;;;;;;8.77;1.00;;;13.40;99.90;;;;;;5031330;28;20037;-75
2022/10/06 03:51:06;;;;;;;8.00;0.90;;;13.30;99.90;;;;;;5035783;28;20044;-75
2022/10/06 03:53:33;;;;;;;7.53;0.90;;;13.30;99.90;;;;;;5037484;28;20036;-75
2022/10/06 03:56:07;;;;;;;3.38;0.85;;;13.30;99.90;;;;;;5030011;28;20397;-75
2022/10/06 03:58:38;;;;;;;8.40;1.10;;;13.30;99.90;;;;;;5030472;28;20017;-75
2022/10/06 04:01:10;;;;;;;8.02;1.30;;;13.20;99.90;;;;;;5023877;28;20082;-75
2022/10/06 04:03:36;;;;;;;6.30;1.15;;;13.20;99.90;;;;;;5029854;28;20031;-75
2022/10/06 04:06:06;;;;;;;6.32;0.82;;;13.10;99.90;;;;;;5031231;28;20029;-75
2022/10/06 04:08:33;;;;;;;4.70;1.00;;;13.10;99.90;;;;;;5038677;28;20052;-75
2022/10/06 04:11:20;;;;;;;9.45;1.08;;;13.10;99.90;;;;;;5032313;28;20029;-75
2022/10/06 04:13:46;;;;;;;6.95;0.85;;;13.00;99.90;;;;;;5029862;28;20112;-75
2022/10/06 04:16:18;;;;;;;4.45;1.05;;;13.00;99.90;;;;;;5036005;28;20435;-75
2022/10/06 04:18:48;;;;;;;6.40;0.98;;;12.90;99.90;;;;;;5027042;28;20104;-75
2022/10/06 04:21:14;;;;;;;4.85;1.00;;;12.90;99.90;;;;;;5034913;28;20025;-75
2022/10/06 04:23:40;;;;;;;6.60;0.90;;;12.80;99.90;;;;;;5036012;28;20037;-75
2022/10/06 04:26:12;;;;;;;3.20;0.73;;;12.70;99.90;;;;;;5033785;28;20025;-75
2022/10/06 04:28:39;;;;;;;5.05;1.13;;;12.70;99.90;;;;;;5030710;28;20049;-75
2022/10/06 04:31:27;;;;;;;4.22;1.55;;;12.60;99.90;;;;;;5029319;28;20033;-75
2022/10/06 04:33:55;;;;;;;5.45;1.25;;;12.60;99.90;;;;;;5026234;28;20023;-75
2022/10/06 04:36:26;;;;;;;7.15;1.30;;;12.50;99.90;;;;;;5029118;28;20025;-75
2022/10/06 04:38:57;;;;;;;8.07;2.08;;;12.40;99.90;;;;;;5029394;28;20511;-75
2022/10/06 04:41:25;;;;;;;7.38;2.20;;;12.40;99.90;;;;;;5029195;28;20038;-75
2022/10/06 04:43:51;;;;;;;9.98;3.03;;;12.40;99.90;;;;;;5026289;28;20017;-75
2022/10/06 04:46:19;;;;;;;8.00;1.73;;;12.40;99.90;;;;;;5031861;28;20025;-75
2022/10/06 04:48:44;;;;;;;9.32;1.75;;;12.30;99.90;;;;;;5022958;28;20018;-75
2022/10/06 04:51:15;;;;;;;6.97;1.08;;;12.20;99.90;;;;;;5037942;28;20029;-75
2022/10/06 04:53:45;;;;;;;4.18;1.20;;;12.20;99.90;;;;;;5027501;28;20246;-75
2022/10/06 04:56:16;;;;;;;4.07;1.50;;;12.20;99.90;;;;;;5027632;28;20306;-75
2022/10/06 04:58:44;;;;;;;7.88;1.42;;;12.10;99.90;;;;;;5039839;28;20509;-75
2022/10/06 05:01:20;;;;;;;5.28;1.35;;;12.10;99.90;;;;;;5034053;28;20041;-75
2022/10/06 05:03:48;;;;;;;7.63;1.35;;;12.00;99.90;;;;;;5024519;28;20034;-76
2022/10/06 05:06:26;;;;;;;7.60;1.95;;;12.00;99.90;;;;;;5027688;28;21386;-75
2022/10/06 05:08:54;;;;;;;4.03;1.48;;;12.00;99.90;;;;;;5035172;28;20025;-75
2022/10/06 05:11:21;;;;;;;8.27;1.63;;;11.90;99.90;;;;;;5033412;28;20026;-76
2022/10/06 05:13:49;;;;;;;5.40;1.67;;;11.90;99.90;;;;;;5028872;28;20048;-75
2022/10/06 05:16:16;;;;;;;11.13;2.03;;;11.80;99.90;;;;;;5021465;28;20452;-76
2022/10/06 05:18:42;;;;;;;6.32;1.73;;;11.80;99.90;;;;;;5034369;28;20072;-75
2022/10/06 05:21:21;;;;;;;7.38;1.65;;;11.80;99.90;;;;;;5029094;28;20032;-75
2022/10/06 05:23:47;;;;;;;6.80;1.70;;;11.70;99.90;;;;;;5032853;28;20029;-76
2022/10/06 05:26:16;;;;;;;2.75;1.33;;;11.70;99.90;;;;;;5027017;28;20025;-75
2022/10/06 05:28:41;;;;;;;4.60;1.60;;;11.70;99.90;;;;;;5034657;28;20049;-75
2022/10/06 05:31:11;;;;;;;6.80;1.50;;;11.70;99.90;;;;;;5036816;28;20106;-75
2022/10/06 05:33:37;;;;;;;5.75;1.70;;;11.70;99.90;;;;;;5028362;28;20029;-76
2022/10/06 05:36:15;;;;;;;4.82;1.60;;;11.70;99.90;;;;;;5029690;28;20021;-75
2022/10/06 05:38:42;;;;;;;7.25;1.88;;;11.60;99.90;;;;;;5021987;28;20031;-75
2022/10/06 05:41:15;;;;;;;5.53;1.60;;;11.60;99.90;;;;;;5029856;28;20025;-75
2022/10/06 05:43:42;;;;;;;5.72;2.00;;;11.60;99.90;;;;;;5025300;28;20107;-75
2022/10/06 05:46:18;;;;;;;16.48;6.13;;;11.50;99.90;;;;;;5030991;28;20029;-75
2022/10/06 05:48:48;;;;;;;18.55;9.40;;;11.50;99.90;;;;;;5029838;28;20509;-76
2022/10/06 05:51:14;;;;;;;20.90;10.52;;;11.50;99.90;;;;;;5046115;28;20072;-75
2022/10/06 05:53:40;;;;;;;16.08;8.27;;;11.40;99.90;;;;;;5035778;28;20469;-75
2022/10/06 05:56:20;;;;;;;9.75;5.53;;;11.40;99.90;;;;;;5027115;28;20036;-75
2022/10/06 05:58:48;;;;;;;7.85;4.10;;;11.40;99.90;;;;;;5030044;28;20017;-75
2022/10/06 06:01:24;;;;;;;7.45;3.10;;;11.40;99.90;;;;;;5026337;28;20029;-76
2022/10/06 06:03:56;;;;;;;5.40;2.40;;;11.30;99.90;;;;;;5030860;28;20079;-76
2022/10/06 06:06:27;;;;;;;7.47;2.20;;;11.30;99.90;;;;;;5037831;28;20044;-76
2022/10/06 06:08:55;;;;;;;8.63;2.55;;;11.30;99.90;;;;;;5026243;28;20030;-76
2022/10/06 06:11:24;;;;;;;6.40;3.25;;;11.30;99.90;;;;;;5035928;28;20072;-76
2022/10/06 06:13:51;;;;;;;7.13;3.10;;;11.30;99.90;;;;;;5031113;28;20363;-76
2022/10/06 06:16:16;;;;;;;5.15;2.40;;;11.30;99.90;;;;;;5029241;28;20032;-76
2022/10/06 06:18:42;;;;;;;9.32;5.88;;;11.40;99.90;;;;;;5029873;28;20113;-76
2022/10/06 06:21:09;;;;;;;26.60;22.20;;;11.40;99.90;;;;;;5033964;28;20029;-76
2022/10/06 06:23:38;;;;;;;12.10;9.48;;;11.40;99.90;;;;;;5023734;28;20068;-76
2022/10/06 06:26:09;;;;;;;9.52;4.60;;;11.50;99.90;;;;;;5027343;28;20030;-76
2022/10/06 06:28:35;;;;;;;10.40;3.42;;;11.50;99.90;;;;;;5028026;28;20042;-76
2022/10/06 06:31:28;;;;;;;9.43;4.10;;;11.50;99.90;;;;;;5024739;28;20038;-76
2022/10/06 06:33:55;;;;;;;6.53;4.18;;;11.50;99.90;;;;;;5033021;28;20052;-75
2022/10/06 06:36:39;;;;;;;11.57;5.00;;;11.40;99.90;;;;;;5033168;28;20534;-76
2022/10/06 06:39:07;;;;;;;;;;;11.40;99.90;;;;;;5021307;28;20025;-76
2022/10/06 06:41:38;;;;;;;10.07;5.78;;;11.40;99.90;;;;;;5033228;28;19912;-76
2022/10/06 06:44:09;;;;;;;13.00;5.25;;;11.40;99.90;;;;;;5033295;28;20068;-76
2022/10/06 06:46:36;;;;;;;9.90;4.97;;;11.40;99.90;;;;;;5028746;28;20032;-75
2022/10/06 06:49:04;;;;;;;9.90;5.28;;;11.40;99.90;;;;;;5037313;28;20429;-76
2022/10/06 06:51:33;;;;;;;6.05;3.75;;;11.40;99.90;;;;;;5031590;28;20560;-76
2022/10/06 06:54:01;;;;;;;8.07;3.42;;;11.40;99.90;;;;;;5034088;28;20030;-76
2022/10/06 06:56:27;;;;;;;4.43;2.90;;;11.40;99.90;;;;;;5034252;28;20513;-76
2022/10/06 06:58:53;;;;;;;7.43;3.47;;;11.40;99.90;;;;;;5030351;28;20040;-76
2022/10/06 07:01:21;;;;;;;7.45;3.25;;;11.40;99.90;;;;;;5030315;28;20029;-76
2022/10/06 07:03:55;;;;;;;8.20;2.72;;;11.40;99.90;;;;;;5036599;28;20456;-76
2022/10/06 07:06:22;;;;;;;4.90;2.63;;;11.40;99.90;;;;;;5025733;28;20034;-76
2022/10/06 07:08:48;;;;;;;6.65;2.78;;;11.30;99.90;;;;;;5032249;28;20028;-76
2022/10/06 07:11:18;;;;;;;3.55;2.30;;;11.30;99.90;;;;;;5029132;28;20115;-76
2022/10/06 07:13:45;;;;;;;7.32;2.70;;;11.30;99.90;;;;;;5041549;28;20029;-76
2022/10/06 07:27:11;;;;;;;7.72;3.33;;;11.60;99.90;;;;;;5030851;28;20095;-76
2022/10/06 07:29:37;;;;;;;8.35;3.88;;;11.60;99.90;;;;;;5029100;28;20240;-76
2022/10/06 07:32:03;;;;;;;7.70;3.50;;;11.70;99.90;;;;;;5031145;28;20032;-76
2022/10/06 07:34:29;;;;;;;8.88;3.00;;;11.70;99.90;;;;;;5031991;28;20026;-77
2022/10/06 07:36:58;;;;;;;8.10;3.03;;;11.80;99.90;;;;;;4026797;28;10000862;-76
2022/10/06 07:39:23;;;;;;;11.60;3.30;;;11.80;99.90;;;;;;5088453;27;20040;-78
2022/10/06 07:41:49;;;;;;;7.60;2.72;;;11.90;99.90;;;;;;5081737;28;20024;-76
2022/10/06 07:44:15;;;;;;;6.10;3.00;;;12.00;99.90;;;;;;5086667;28;20071;-76
2022/10/06 07:46:42;;;;;;;6.65;2.97;;;12.10;99.90;;;;;;5081349;28;20039;-78
2022/10/06 07:49:08;;;;;;;9.43;3.55;;;12.20;99.90;;;;;;5094245;28;20024;-76
2022/10/06 07:51:34;;;;;;;6.57;3.35;;;12.30;99.90;;;;;;5085650;28;20055;-79
2022/10/06 07:54:00;;;;;;;8.52;3.22;;;12.40;99.90;;;;;;5081842;28;20028;-77
2022/10/06 07:56:26;;;;;;;8.32;2.90;;;12.60;99.90;;;;;;5077275;28;20063;-79
2022/10/06 07:58:52;;;;;;;6.65;2.95;;;12.70;99.90;;;;;;5078396;28;20115;-78
2022/10/06 08:01:19;;;;;;;8.70;2.70;;;12.80;99.90;;;;;;5094577;27;20549;-78
2022/10/06 08:03:47;;;;;;;7.93;2.58;;;12.90;99.90;;;;;;5084636;27;20039;-78
2022/10/06 08:06:16;;;;;;;7.13;2.50;;;13.00;99.90;;;;;;5072568;27;20165;-77
2022/10/06 08:08:43;;;;;;;7.20;2.70;;;13.10;99.90;;;;;;5042116;28;20041;-78
2022/10/06 08:11:10;;;;;;;5.65;2.53;;;13.30;99.90;;;;;;5039285;28;20025;-78
2022/10/06 08:13:38;;;;;;;6.88;3.05;;;13.40;99.90;;;;;;5028586;28;20312;-74
2022/10/06 08:16:24;;;;;;;7.72;2.42;;;13.50;99.90;;;;;;5030385;28;20024;-76
2022/10/06 08:18:54;;;;;;;5.25;2.20;;;13.70;99.90;;;;;;5024146;28;20060;-77
2022/10/06 08:21:27;;;;;;;5.85;2.25;;;13.80;99.90;;;;;;5026892;28;20033;-74
2022/10/06 08:23:55;;;;;;;11.52;1.90;;;14.00;99.90;;;;;;5032093;28;20477;-76
2022/10/06 08:26:22;;;;;;;9.13;2.17;;;14.20;99.90;;;;;;5024578;28;20118;-77
2022/10/06 08:28:53;;;;;;;9.52;1.80;;;14.40;99.90;;;;;;5028739;28;20456;-76
2022/10/06 08:31:20;;;;;;;10.90;2.40;;;14.60;99.90;;;;;;5027766;28;20041;-80
2022/10/06 08:33:46;;;;;;;4.38;1.52;;;14.70;99.90;;;;;;5031082;28;20029;-75
2022/10/06 08:36:15;;;;;;;6.22;1.52;;;14.80;99.90;;;;;;5024032;28;20516;-76
2022/10/06 08:38:42;;;;;;;5.32;1.88;;;15.00;99.90;;;;;;5022269;28;20009;-78
2022/10/06 08:41:48;;;;;;;4.70;1.45;;;15.10;99.90;;;;;;5032715;28;20033;-76
2022/10/06 08:44:18;;;;;;;7.30;1.73;;;15.10;99.90;;;;;;5032304;28;20032;-77
2022/10/06 08:47:12;;;;;;;5.10;1.52;;;15.10;99.90;;;;;;5028335;28;20497;-76
2022/10/06 08:49:43;;;;;;;8.02;2.00;;;15.20;99.90;;;;;;5025107;28;20036;-77
2022/10/06 08:52:26;;;;;;;7.15;1.95;;;15.30;99.90;;;;;;5021234;28;20026;-78
2022/10/06 08:55:04;;;;;;;;;;;15.50;99.90;;;;;;5024238;28;20045;-77
2022/10/06 08:57:41;;;;;;;7.97;1.73;;;15.60;99.90;;;;;;5021442;28;19921;-77
2022/10/06 09:00:11;;;;;;;7.00;1.85;;;15.70;99.90;;;;;;5020387;28;20389;-76
2022/10/06 09:02:41;;;;;;;7.07;2.35;;;15.90;99.90;;;;;;5028339;28;20108;-77
2022/10/06 09:05:12;;;;;;;7.75;1.60;;;16.00;99.90;;;;;;5029025;28;20029;-76
2022/10/06 09:08:03;;;;;;;8.82;1.65;;;16.10;99.90;;;;;;5033336;28;20037;-76
2022/10/06 09:10:40;;;;;;;10.07;2.40;;;16.20;99.90;;;;;;5025919;28;20032;-76
2022/10/06 09:13:16;;;;;;;4.30;1.42;;;16.00;99.90;;;;;;5020492;28;20074;-76
2022/10/06 09:15:48;;;;;;;9.30;1.73;;;16.00;99.90;;;;;;5026619;28;20055;-76
2022/10/06 09:18:40;;;;;;;7.68;1.48;;;15.80;99.90;;;;;;5020135;28;20060;-76
2022/10/06 09:21:17;;;;;;;6.70;1.40;;;15.80;99.90;;;;;;5013614;28;20040;-77
2022/10/06 09:23:49;;;;;;;3.42;1.30;;;15.80;99.90;;;;;;5023258;28;20036;-77
2022/10/06 09:26:16;;;;;;;8.98;1.77;;;16.00;99.90;;;;;;5029196;28;20127;-78
2022/10/06 09:28:46;;;;;;;7.15;1.40;;;16.10;99.90;;;;;;5031048;28;20041;-76
2022/10/06 09:31:22;;;;;;;5.78;1.25;;;16.20;99.90;;;;;;5025135;28;20684;-77
2022/10/06 09:33:52;;;;;;;6.20;1.58;;;16.00;99.90;;;;;;5029460;28;20032;-73
2022/10/06 09:36:18;;;;;;;7.88;1.30;;;16.10;99.90;;;;;;5030927;28;20493;-74
2022/10/06 09:38:54;;;;;;;5.93;1.45;;;16.10;99.90;;;;;;5025677;28;20265;-76
2022/10/06 09:41:36;;;;;;;4.22;1.10;;;16.10;99.90;;;;;;5033700;28;20021;-77
2022/10/06 09:44:20;;;;;;;7.43;1.30;;;16.10;99.90;;;;;;5027651;28;20500;-76
2022/10/06 09:46:46;;;;;;;6.03;1.40;;;16.20;99.90;;;;;;5025767;28;20432;-75
2022/10/06 09:49:21;;;;;;;8.02;1.40;;;16.30;99.90;;;;;;5029553;28;20028;-77
2022/10/06 09:51:59;;;;;;;5.88;1.35;;;16.40;99.90;;;;;;5031659;28;20110;-75
2022/10/06 09:54:24;;;;;;;5.15;1.25;;;16.50;99.90;;;;;;5026405;28;20037;-76
2022/10/06 09:56:54;;;;;;;5.68;1.20;;;16.60;99.90;;;;;;5025344;28;20679;-77
2022/10/06 09:59:30;;;;;;;8.23;1.42;;;16.80;99.90;;;;;;5030809;28;20029;-77
2022/10/06 10:01:58;;;;;;;5.32;1.90;;;16.80;99.90;;;;;;5021948;28;20032;-75
2022/10/06 10:04:31;;;;;;;5.88;1.10;;;17.00;99.90;;;;;;5027303;28;20022;-75
2022/10/06 10:07:23;;;;;;;4.33;1.30;;;16.90;99.90;;;;;;5042949;28;20025;-74
2022/10/06 10:09:49;;;;;;;8.90;1.60;;;16.90;99.90;;;;;;5025929;28;20030;-75
2022/10/06 10:12:23;;;;;;;9.23;1.45;;;16.90;99.90;;;;;;5031378;28;20021;-75
2022/10/06 10:14:49;;;;;;;5.63;0.98;;;16.90;99.90;;;;;;5037309;28;20021;-75
2022/10/06 10:17:39;;;;;;;5.13;1.30;;;16.80;99.90;;;;;;5034571;28;20032;-76
2022/10/06 10:20:36;;;;;;;5.20;1.20;;;16.70;99.90;;;;;;5027927;28;20032;-74
2022/10/06 10:23:22;;;;;;;4.68;1.35;;;16.70;99.90;;;;;;5031139;28;20128;-75
2022/10/06 10:26:16;;;;;;;6.60;1.50;;;16.80;99.90;;;;;;5040478;28;20149;-78
2022/10/06 10:29:06;;;;;;;7.88;1.40;;;16.70;99.90;;;;;;5030555;28;20044;-75
2022/10/06 10:32:01;;;;;;;7.22;1.80;;;16.70;99.90;;;;;;5035078;28;20040;-75
2022/10/06 10:34:54;;;;;;;6.72;1.20;;;16.80;99.90;;;;;;5040341;28;20056;-75
2022/10/06 10:37:41;;;;;;;5.95;1.60;;;16.90;99.90;;;;;;5034226;28;20063;-76
2022/10/06 10:40:22;;;;;;;9.13;1.85;;;17.10;99.90;;;;;;5031624;28;20036;-76
2022/10/06 10:43:03;;;;;;;5.13;1.40;;;17.20;99.90;;;;;;5034788;28;20032;-76
2022/10/06 10:45:32;;;;;;;5.70;1.23;;;17.40;99.90;;;;;;5030968;28;20045;-76
2022/10/06 10:48:00;;;;;;;6.10;1.48;;;17.40;99.90;;;;;;5033933;28;20072;-76
2022/10/06 10:50:41;;;;;;;6.38;1.50;;;17.50;99.90;;;;;;5032410;28;20397;-76
2022/10/06 10:53:15;;;;;;;7.75;1.55;;;17.50;99.90;;;;;;5035874;28;20032;-77
2022/10/06 10:55:45;;;;;;;9.05;1.55;;;17.60;99.90;;;;;;5044306;28;20024;-76
2022/10/06 10:58:35;;;;;;;5.38;1.40;;;17.60;99.90;;;;;;5032124;28;20025;-76
2022/10/06 11:01:35;;;;;;;7.00;1.52;;;17.60;99.90;;;;;;5031523;28;20017;-76
2022/10/06 11:04:02;;;;;;;6.93;1.55;;;17.60;99.90;;;;;;5040883;28;20127;-76
2022/10/06 11:07:10;;;;;;;6.07;1.50;;;17.50;99.90;;;;;;5031767;28;20021;-76
2022/10/06 11:09:38;;;;;;;6.75;1.88;;;17.40;99.90;;;;;;5037817;28;20045;-76
2022/10/06 11:12:22;;;;;;;3.42;1.73;;;17.50;99.90;;;;;;5034045;28;20021;-76
2022/10/06 11:15:20;;;;;;;3.72;1.15;;;17.60;99.90;;;;;;5040552;28;20021;-76
2022/10/06 11:17:49;;;;;;;8.05;1.85;;;17.70;99.70;;;;;;5033948;28;20139;-76
2022/10/06 11:20:36;;;;;;;3.38;1.10;;;17.80;98.90;;;;;;5034582;28;20033;-76
2022/10/06 11:23:24;;;;;;;5.97;1.52;;;17.80;98.30;;;;;;5033815;28;20580;-75
2022/10/06 11:26:16;;;;;;;6.68;1.73;;;17.70;99.00;;;;;;5042974;28;20410;-76
2022/10/06 11:29:14;;;;;;;10.18;1.73;;;17.70;99.00;;;;;;5040874;28;20533;-76
2022/10/06 11:31:50;;;;;;;8.63;1.70;;;17.70;99.80;;;;;;5035938;28;20048;-76
2022/10/06 11:34:15;;;;;;;5.40;1.70;;;17.70;99.50;;;;;;5030347;28;20112;-76
2022/10/06 11:36:54;;;;;;;6.68;1.75;;;17.80;98.10;;;;;;5031270;28;20117;-76
2022/10/06 11:39:31;;;;;;;7.45;1.88;;;17.80;98.00;;;;;;5035827;28;20108;-76
2022/10/06 11:42:04;;;;;;;5.38;1.23;;;17.80;97.90;;;;;;5032882;28;20071;-76
2022/10/06 11:45:13;;;;;;;9.52;2.03;;;17.80;97.10;;;;;;5043774;28;20483;-76
2022/10/06 11:47:58;;;;;;;10.27;3.00;;;17.90;96.50;;;;;;5037535;28;20036;-76
2022/10/06 11:50:33;;;;;;;6.90;1.92;;;17.90;97.70;;;;;;5040164;28;20029;-76
2022/10/06 11:52:58;;;;;;;7.30;2.10;;;18.00;98.30;;;;;;5035973;28;20037;-76
2022/10/06 11:55:27;;;;;;;8.90;2.22;;;18.10;97.80;;;;;;5044316;28;20439;-76
2022/10/06 11:58:10;;;;;;;9.07;1.70;;;18.10;97.60;;;;;;5039070;28;20036;-75
2022/10/06 12:00:36;;;;;;;7.97;1.90;;;18.20;97.00;;;;;;5032307;28;20040;-75
2022/10/06 12:03:32;;;;;;;9.38;1.75;;;18.30;97.00;;;;;;5031433;28;20856;-75
2022/10/06 12:05:58;;;;;;;6.38;1.33;;;18.30;96.40;;;;;;5039340;28;20039;-76
2022/10/06 12:08:38;;;;;;;5.03;1.35;;;18.40;95.40;;;;;;5030916;28;20037;-75
2022/10/06 12:11:36;;;;;;;5.60;1.42;;;18.40;95.40;;;;;;5030897;28;20025;-75
2022/10/06 12:14:04;;;;;;;7.15;1.58;;;18.50;96.20;;;;;;5028470;28;20029;-76
2022/10/06 12:16:37;;;;;;;6.63;1.33;;;18.60;95.60;;;;;;5025612;28;20112;-77
2022/10/06 12:19:18;;;;;;;7.03;2.40;;;18.70;94.80;;;;;;5030657;28;20036;-76
2022/10/06 12:22:06;;;;;;;6.32;1.80;;;18.80;95.30;;;;;;5037319;28;20201;-76
2022/10/06 12:24:40;;;;;;;6.78;2.05;;;18.70;93.90;;;;;;5032303;28;20087;-76
2022/10/06 12:27:28;;;;;;;9.10;1.48;;;18.80;94.60;;;;;;5024920;28;20029;-76
2022/10/06 12:30:18;;;;;;;9.88;2.03;;;18.80;93.80;;;;;;5040189;28;20084;-76
2022/10/06 12:32:47;;;;;;;7.65;1.77;;;18.90;93.40;;;;;;5028455;28;20033;-76
2022/10/06 12:35:33;;;;;;;11.00;1.77;;;19.00;92.40;;;;;;5040226;28;20049;-76
2022/10/06 12:38:34;;;;;;;5.72;1.55;;;18.90;92.70;;;;;;5040477;28;20040;-76
2022/10/06 12:41:00;;;;;;;5.68;1.52;;;19.00;92.30;;;;;;5048414;28;20033;-76
2022/10/06 12:43:42;;;;;;;6.95;1.80;;;19.00;92.70;;;;;;5032541;28;20055;-76
2022/10/06 12:46:20;;;;;;;4.85;1.30;;;19.00;92.30;;;;;;5026003;28;20154;-76
2022/10/06 12:48:54;;;;;;;6.22;1.70;;;19.10;92.20;;;;;;5028047;28;20072;-76
2022/10/06 12:51:28;;;;;;;5.32;1.23;;;19.10;92.00;;;;;;5031677;28;20029;-76
2022/10/06 12:54:27;;;;;;;7.95;1.60;;;19.00;92.20;;;;;;5027727;28;20087;-76
2022/10/06 12:57:12;;;;;;;4.53;1.40;;;19.00;91.80;;;;;;5025914;28;20032;-77
2022/10/06 12:59:39;;;;;;;6.22;1.80;;;19.00;92.30;;;;;;5042804;28;20029;-77
2022/10/06 13:02:09;;;;;;;6.43;1.58;;;19.10;91.30;;;;;;5031768;28;20036;-76
2022/10/06 13:04:34;;;;;;;8.35;1.60;;;19.00;90.80;;;;;;5037724;28;20086;-77
2022/10/06 13:07:21;;;;;;;5.88;1.40;;;18.90;91.40;;;;;;5028737;28;20484;-76
2022/10/06 13:09:50;;;;;;;5.80;1.75;;;18.90;92.00;;;;;;5027012;28;20052;-77
2022/10/06 13:12:21;;;;;;;4.72;1.70;;;18.90;92.10;;;;;;5032166;28;20030;-77
2022/10/06 13:14:47;;;;;;;6.57;1.33;;;19.00;91.50;;;;;;5025073;28;20082;-77
2022/10/06 13:17:13;;;;;;;9.73;2.10;;;19.10;91.00;;;;;;5024618;28;20073;-77
2022/10/06 13:19:43;;;;;;;5.90;1.70;;;19.10;91.60;;;;;;5029968;28;20159;-77
2022/10/06 13:22:13;;;;;;;5.70;1.40;;;19.00;91.10;;;;;;5027606;28;20040;-77